Moundville, Missouri
Current Conditions -  °F | °C
As of 1:35 PM on Wednesday 17 Dec 2014 (Local Time) from KPTS Reporting Station
Overcast Overcast  
Wind Chill: 27°   Ceiling: 5000
Heat Index: 33°   Visibility: 10mi
Dew Point: 29°   Wind: 7mph
Humidity: 85%   Direction: 110°ESE
Pressure: 30.23"   Gusts: NA
Location:  37.76°N, 94.45°W
Report Text: KPTS 171935Z AUTO 11006KT 10SM BKN050 BKN070 OVC085 01/M02 A3023 RMK AO2 T00061016
Loading
Personal Weather Stations






























Interactive Weather Map New forecast layout! Learn more

10-Day Weather Forecast

Advertisements
Track Severe Weather on mobile